createdAt,value
2023-04-24T00:02:19.969Z,3.83
2023-04-24T00:04:50.085Z,3.40
2023-04-24T00:07:21.208Z,4.10
2023-04-24T00:09:49.458Z,3.95
2023-04-24T00:12:17.996Z,4.80
2023-04-24T00:14:46.220Z,3.75
2023-04-24T00:17:14.755Z,4.85
2023-04-24T00:19:43.239Z,4.60
2023-04-24T00:22:12.112Z,4.57
2023-04-24T00:24:41.798Z,4.57
2023-04-24T00:27:10.284Z,3.70
2023-04-24T00:29:38.513Z,3.88
2023-04-24T00:32:07.174Z,3.58
2023-04-24T00:34:35.951Z,4.13
2023-04-24T00:37:04.515Z,4.03
2023-04-24T00:39:32.859Z,5.60
2023-04-24T00:42:03.394Z,4.88
2023-04-24T00:44:31.854Z,5.63
2023-04-24T00:47:01.113Z,4.95
2023-04-24T00:49:29.455Z,4.45
2023-04-24T00:52:00.423Z,4.65
2023-04-24T00:54:28.588Z,4.72
2023-04-24T00:56:58.003Z,3.83
2023-04-24T00:59:27.668Z,4.63
2023-04-24T01:01:56.699Z,5.45
2023-04-24T01:04:25.050Z,3.90
2023-04-24T01:06:53.975Z,4.47
2023-04-24T01:09:25.338Z,4.40
2023-04-24T01:11:54.103Z,4.35
2023-04-24T01:14:23.047Z,4.18
2023-04-24T01:16:52.876Z,4.13
2023-04-24T01:19:21.541Z,3.85
2023-04-24T01:21:55.558Z,4.85
2023-04-24T01:24:25.423Z,4.18
2023-04-24T01:26:54.317Z,5.82
2023-04-24T01:29:22.804Z,4.88
2023-04-24T01:31:51.394Z,4.65
2023-04-24T01:34:19.753Z,4.50
2023-04-24T01:36:49.738Z,5.38
2023-04-24T01:39:18.025Z,5.25
2023-04-24T01:41:48.071Z,4.93
2023-04-24T01:44:16.795Z,5.63
2023-04-24T01:46:45.357Z,5.53
2023-04-24T01:49:13.720Z,5.38
2023-04-24T01:51:42.324Z,4.93
2023-04-24T01:54:10.592Z,5.63
2023-04-24T01:56:42.546Z,4.90
2023-04-24T01:59:13.450Z,5.22
2023-04-24T02:01:42.233Z,4.50
2023-04-24T02:04:10.919Z,5.03
2023-04-24T02:06:39.527Z,5.95
2023-04-24T02:09:07.812Z,5.50
2023-04-24T02:11:36.290Z,5.70
2023-04-24T02:14:04.842Z,5.53
2023-04-24T02:16:36.990Z,5.18
2023-04-24T02:19:05.457Z,5.18
2023-04-24T02:21:34.143Z,5.88
2023-04-24T02:24:02.411Z,5.28
2023-04-24T02:26:32.808Z,6.10
2023-04-24T02:29:01.035Z,6.22
2023-04-24T02:31:29.593Z,7.15
2023-04-24T02:33:59.155Z,6.15
2023-04-24T02:36:27.715Z,6.25
2023-04-24T02:38:55.937Z,5.63
2023-04-24T02:41:24.430Z,5.63
2023-04-24T02:43:52.618Z,5.65
2023-04-24T02:46:21.190Z,6.43
2023-04-24T02:48:49.571Z,6.38
2023-04-24T02:51:19.399Z,6.32
2023-04-24T02:53:47.543Z,6.50
2023-04-24T02:56:16.026Z,6.05
2023-04-24T02:58:44.428Z,6.25
2023-04-24T03:01:13.332Z,5.32
2023-04-24T03:03:42.130Z,6.18
2023-04-24T03:06:10.863Z,5.65
2023-04-24T03:08:40.579Z,6.15
2023-04-24T03:11:09.184Z,5.93
2023-04-24T03:13:37.504Z,6.03
2023-04-24T03:16:06.962Z,5.95
2023-04-24T03:18:35.388Z,6.10
2023-04-24T03:21:04.524Z,6.65
2023-04-24T03:23:32.736Z,6.47
2023-04-24T03:26:03.380Z,6.95
2023-04-24T03:28:31.668Z,7.10
2023-04-24T03:31:00.990Z,6.03
2023-04-24T03:33:29.243Z,6.82
2023-04-24T03:35:57.822Z,6.00
2023-04-24T03:38:26.466Z,6.70
2023-04-24T03:40:55.120Z,6.07
2023-04-24T03:43:24.746Z,6.57
2023-04-24T03:45:53.354Z,6.00
2023-04-24T03:48:21.555Z,6.43
2023-04-24T03:50:50.080Z,6.55
2023-04-24T03:53:18.468Z,6.22
2023-04-24T03:55:47.149Z,5.97
2023-04-24T03:58:15.695Z,5.55
2023-04-24T04:00:47.585Z,5.80
2023-04-24T04:03:16.663Z,6.32
2023-04-24T04:05:45.482Z,4.85
2023-04-24T04:08:13.799Z,5.20
2023-04-24T04:10:42.336Z,4.50
2023-04-24T04:13:10.933Z,6.47
2023-04-24T04:15:39.529Z,5.47
2023-04-24T04:18:09.625Z,5.18
2023-04-24T04:20:38.954Z,5.78
2023-04-24T04:23:07.244Z,5.85
2023-04-24T04:25:35.885Z,5.65
2023-04-24T04:28:04.311Z,5.43
2023-04-24T04:30:33.267Z,8.23
2023-04-24T04:33:02.381Z,8.88
2023-04-24T04:35:32.368Z,7.78
2023-04-24T04:38:00.774Z,8.65
2023-04-24T04:40:31.167Z,8.60
2023-04-24T04:42:59.474Z,7.85
2023-04-24T04:45:28.655Z,8.43
2023-04-24T04:47:57.776Z,7.15
2023-04-24T04:50:26.598Z,7.60
2023-04-24T04:52:56.588Z,7.53
2023-04-24T04:55:25.228Z,8.43
2023-04-24T04:57:53.663Z,7.80
2023-04-24T05:00:22.354Z,7.43
2023-04-24T05:02:50.909Z,6.63
2023-04-24T05:05:19.998Z,7.60
2023-04-24T05:07:48.265Z,7.40
2023-04-24T05:10:18.057Z,7.72
2023-04-24T05:12:46.534Z,7.82
2023-04-24T05:15:15.141Z,7.97
2023-04-24T05:17:43.494Z,7.13
2023-04-24T05:20:12.355Z,7.68
2023-04-24T05:22:40.828Z,7.70
2023-04-24T05:25:10.018Z,8.18
2023-04-24T05:27:40.271Z,8.15
2023-04-24T05:30:10.532Z,7.65
2023-04-24T05:32:38.937Z,8.27
2023-04-24T05:35:08.831Z,7.32
2023-04-24T05:37:37.199Z,7.38
2023-04-24T05:40:06.707Z,7.53
2023-04-24T05:42:35.124Z,6.80
2023-04-24T05:45:05.555Z,6.80
2023-04-24T05:47:33.899Z,7.85
2023-04-24T05:50:02.436Z,7.55
2023-04-24T05:52:31.352Z,6.30
2023-04-24T05:55:00.036Z,6.43
2023-04-24T05:57:28.418Z,6.68
2023-04-24T05:59:57.463Z,6.40
2023-04-24T06:02:27.295Z,6.72
2023-04-24T06:04:56.593Z,7.05
2023-04-24T06:07:24.924Z,6.28
2023-04-24T06:09:53.471Z,6.50
2023-04-24T06:12:21.893Z,7.10
2023-04-24T06:14:50.596Z,6.03
2023-04-24T06:17:19.043Z,6.45
2023-04-24T06:19:49.110Z,6.95
2023-04-24T06:22:17.939Z,6.25
2023-04-24T06:24:46.550Z,5.95
2023-04-24T06:27:15.831Z,5.85
2023-04-24T06:29:44.861Z,5.78
2023-04-24T06:32:13.349Z,5.47
2023-04-24T06:34:43.367Z,5.72
2023-04-24T06:37:13.111Z,5.57
2023-04-24T06:39:41.999Z,4.82
2023-04-24T06:42:10.742Z,6.03
2023-04-24T06:44:42.134Z,5.28
2023-04-24T06:47:10.951Z,5.65
2023-04-24T06:49:39.941Z,6.38
2023-04-24T06:52:08.597Z,5.13
2023-04-24T06:54:38.450Z,4.57
2023-04-24T06:57:07.027Z,4.78
2023-04-24T06:59:35.640Z,4.80
2023-04-24T07:04:33.171Z,5.30
2023-04-24T07:07:02.029Z,5.20
2023-04-24T07:09:30.957Z,5.13
2023-04-24T07:12:00.692Z,4.68
2023-04-24T07:14:29.209Z,4.90
2023-04-24T07:16:58.152Z,5.40
2023-04-24T07:19:26.686Z,4.07
2023-04-24T07:21:56.103Z,4.60
2023-04-24T07:24:26.676Z,4.18
2023-04-24T07:26:57.992Z,4.38
2023-04-24T07:29:28.471Z,4.00
2023-04-24T07:31:57.658Z,4.43
2023-04-24T07:34:26.430Z,4.85
2023-04-24T07:36:54.853Z,5.18
2023-04-24T07:39:23.693Z,4.50
2023-04-24T07:41:51.924Z,4.15
2023-04-24T07:44:21.115Z,3.97
2023-04-24T07:46:50.882Z,4.30
2023-04-24T07:49:25.706Z,4.40
2023-04-24T07:51:54.308Z,3.83
2023-04-24T07:54:23.426Z,3.78
2023-04-24T07:56:52.187Z,4.68
2023-04-24T07:59:21.054Z,3.83
2023-04-24T08:01:51.021Z,2.97
2023-04-24T08:04:20.374Z,4.05
2023-04-24T08:06:49.725Z,3.78
2023-04-24T08:09:18.317Z,3.35
2023-04-24T08:11:46.674Z,3.58
2023-04-24T08:14:15.974Z,3.15
2023-04-24T08:16:44.622Z,3.53
2023-04-24T08:19:14.547Z,3.42
2023-04-24T08:21:42.912Z,4.10
2023-04-24T08:24:11.528Z,3.40
2023-04-24T08:26:40.124Z,4.05
2023-04-24T08:29:08.945Z,3.70
2023-04-24T08:31:37.553Z,3.25
2023-04-24T08:34:06.164Z,3.17
2023-04-24T08:36:46.048Z,3.10
2023-04-24T08:39:16.362Z,3.45
2023-04-24T08:41:46.301Z,2.38
2023-04-24T08:44:16.768Z,3.20
2023-04-24T08:46:46.647Z,2.85
2023-04-24T08:49:17.262Z,3.40
2023-04-24T08:51:48.129Z,2.60
2023-04-24T08:54:16.893Z,2.90
2023-04-24T08:56:46.570Z,3.38
2023-04-24T08:59:16.132Z,3.50
2023-04-24T09:01:47.332Z,3.10
2023-04-24T09:04:19.236Z,3.03
2023-04-24T09:06:50.453Z,3.33
2023-04-24T09:09:19.888Z,2.78
2023-04-24T09:11:49.158Z,3.05
2023-04-24T09:14:18.941Z,2.88
2023-04-24T09:16:48.012Z,3.25
2023-04-24T09:19:16.857Z,2.70
2023-04-24T09:21:49.465Z,2.55
2023-04-24T09:24:19.724Z,2.92
2023-04-24T09:26:48.309Z,2.95
2023-04-24T09:29:18.676Z,3.08
2023-04-24T09:31:48.179Z,3.03
2023-04-24T09:34:17.015Z,3.55
2023-04-24T09:36:45.600Z,2.80
2023-04-24T09:39:17.982Z,2.67
2023-04-24T09:41:48.035Z,3.53
2023-04-24T09:44:18.197Z,3.25
2023-04-24T09:46:51.072Z,2.60
2023-04-24T09:49:27.689Z,2.90
2023-04-24T09:52:05.604Z,2.67
2023-04-24T09:54:38.030Z,2.60
2023-04-24T09:57:06.723Z,2.40
2023-04-24T09:59:37.373Z,2.80
2023-04-24T10:02:18.444Z,2.67
2023-04-24T10:04:57.532Z,3.17
2023-04-24T10:07:28.334Z,2.88
2023-04-24T10:09:58.764Z,2.85
2023-04-24T10:12:30.004Z,2.92
2023-04-24T10:14:59.687Z,3.10
2023-04-24T10:17:30.039Z,2.95
2023-04-24T10:19:59.892Z,2.58
2023-04-24T10:22:31.288Z,3.15
2023-04-24T10:25:02.014Z,2.58
2023-04-24T10:27:32.336Z,2.42
2023-04-24T10:30:02.135Z,2.42
2023-04-24T10:32:31.240Z,2.67
2023-04-24T10:34:59.831Z,2.67
2023-04-24T10:37:29.143Z,2.65
2023-04-24T10:39:58.090Z,2.58
2023-04-24T10:42:29.894Z,2.50
2023-04-24T10:44:59.325Z,2.83
2023-04-24T10:47:27.695Z,2.97
2023-04-24T10:50:01.046Z,2.30
2023-04-24T10:52:47.293Z,2.80
2023-04-24T10:55:16.479Z,2.58
2023-04-24T10:58:06.917Z,2.47
2023-04-24T11:00:39.323Z,2.00
2023-04-24T11:03:08.650Z,2.40
2023-04-24T11:05:52.850Z,2.40
2023-04-24T11:08:27.278Z,2.47
2023-04-24T11:11:14.201Z,3.25
2023-04-24T11:14:09.611Z,2.65
2023-04-24T11:16:43.749Z,2.88
2023-04-24T11:19:21.830Z,3.10
2023-04-24T11:21:56.551Z,3.35
2023-04-24T11:24:29.886Z,3.60
2023-04-24T11:27:00.672Z,3.72
2023-04-24T11:29:44.876Z,4.05
2023-04-24T11:32:21.987Z,3.60
2023-04-24T11:34:51.206Z,2.70
2023-04-24T11:37:19.902Z,3.13
2023-04-24T11:39:48.396Z,3.10
2023-04-24T11:42:17.763Z,3.00
2023-04-24T11:44:49.306Z,3.28
2023-04-24T11:47:17.921Z,3.28
2023-04-24T11:49:46.331Z,3.03
2023-04-24T11:52:17.954Z,2.65
2023-04-24T11:54:51.574Z,3.13
2023-04-24T11:57:23.184Z,3.50
2023-04-24T11:59:53.048Z,3.67
2023-04-24T12:02:25.906Z,3.03
2023-04-24T12:04:55.197Z,3.30
2023-04-24T12:07:25.464Z,2.65
2023-04-24T12:10:00.707Z,3.13
2023-04-24T12:12:30.719Z,2.78
2023-04-24T12:15:01.667Z,3.22
2023-04-24T12:17:32.395Z,3.67
2023-04-24T12:20:03.337Z,2.63
2023-04-24T12:22:46.795Z,3.15
2023-04-24T12:25:15.836Z,2.83
2023-04-24T12:27:45.250Z,2.80
2023-04-24T12:30:16.909Z,2.90
2023-04-24T12:32:47.005Z,3.03
2023-04-24T12:35:16.660Z,2.30
2023-04-24T12:37:47.475Z,2.25
2023-04-24T12:40:16.959Z,2.58
2023-04-24T12:42:47.130Z,2.03
2023-04-24T12:45:17.999Z,2.30
2023-04-24T12:47:48.142Z,1.88
2023-04-24T12:50:17.716Z,2.05
2023-04-24T12:52:47.347Z,2.20
2023-04-24T12:55:15.688Z,2.25
2023-04-24T12:57:44.308Z,2.17
2023-04-24T13:00:13.197Z,1.67
2023-04-24T13:02:43.225Z,2.28
2023-04-24T13:05:12.697Z,2.53
2023-04-24T13:07:41.338Z,2.10
2023-04-24T13:10:10.907Z,2.35
2023-04-24T13:12:39.795Z,2.35
2023-04-24T13:15:09.241Z,2.10
2023-04-24T13:17:38.105Z,2.30
2023-04-24T13:20:09.024Z,2.08
2023-04-24T13:22:38.749Z,2.28
2023-04-24T13:25:08.367Z,2.40
2023-04-24T13:27:37.124Z,2.58
2023-04-24T13:30:06.325Z,2.67
2023-04-24T13:32:36.590Z,2.50
2023-04-24T13:35:05.943Z,3.15
2023-04-24T13:37:36.170Z,3.05
2023-04-24T13:40:07.113Z,3.15
2023-04-24T13:42:36.024Z,2.55
2023-04-24T13:45:23.368Z,2.80
2023-04-24T13:47:54.848Z,2.58
2023-04-24T13:50:24.012Z,3.08
2023-04-24T13:52:54.372Z,2.97
2023-04-24T13:55:22.692Z,2.88
2023-04-24T13:57:53.189Z,2.08
2023-04-24T14:00:22.188Z,2.50
2023-04-24T14:02:51.346Z,2.15
2023-04-24T14:05:20.038Z,2.92
2023-04-24T14:07:48.687Z,2.05
2023-04-24T14:10:18.504Z,2.53
2023-04-24T14:12:47.278Z,2.30
2023-04-24T14:15:15.765Z,2.85
2023-04-24T14:17:44.625Z,2.17
2023-04-24T14:20:15.537Z,2.28
2023-04-24T14:22:44.329Z,2.45
2023-04-24T14:25:12.965Z,2.85
2023-04-24T14:27:43.836Z,2.63
2023-04-24T14:30:13.722Z,2.50
2023-04-24T14:32:42.362Z,2.28
2023-04-24T14:35:11.113Z,2.15
2023-04-24T14:37:42.232Z,2.20
2023-04-24T14:40:32.049Z,2.03
2023-04-24T14:43:01.555Z,2.45
2023-04-24T14:45:30.300Z,2.10
2023-04-24T14:47:59.689Z,2.13
2023-04-24T14:50:31.182Z,1.63
2023-04-24T14:52:59.793Z,2.40
2023-04-24T14:55:28.265Z,2.38
2023-04-24T14:57:57.108Z,2.38
2023-04-24T15:00:26.824Z,2.03
2023-04-24T15:02:56.326Z,1.98
2023-04-24T15:05:26.507Z,2.00
2023-04-24T15:07:55.638Z,1.98
2023-04-24T15:10:24.991Z,1.60
2023-04-24T15:12:53.781Z,2.10
2023-04-24T15:15:22.206Z,2.53
2023-04-24T15:17:52.197Z,1.50
2023-04-24T15:20:20.546Z,1.70
2023-04-24T15:22:49.370Z,1.85
2023-04-24T15:25:17.774Z,1.52
2023-04-24T15:27:47.973Z,2.00
2023-04-24T15:30:16.620Z,1.98
2023-04-24T15:32:45.506Z,1.83
2023-04-24T15:35:15.694Z,1.55
2023-04-24T15:37:44.663Z,1.85
2023-04-24T15:40:14.322Z,1.67
2023-04-24T15:42:43.994Z,1.48
2023-04-24T15:45:13.593Z,1.70
2023-04-24T15:47:42.716Z,1.27
2023-04-24T15:50:14.343Z,1.33
2023-04-24T15:52:45.250Z,1.85
2023-04-24T15:55:13.900Z,1.20
2023-04-24T15:57:42.819Z,1.23
2023-04-24T16:00:12.284Z,1.55
2023-04-24T16:02:41.316Z,1.45
2023-04-24T16:05:11.259Z,1.27
2023-04-24T16:07:40.459Z,1.40
2023-04-24T16:10:11.616Z,1.20
2023-04-24T16:12:40.271Z,1.30
2023-04-24T16:15:09.543Z,1.00
2023-04-24T16:17:38.238Z,1.55
2023-04-24T16:20:07.569Z,1.27
2023-04-24T16:22:36.313Z,1.25
2023-04-24T16:25:05.137Z,1.13
2023-04-24T16:27:35.174Z,1.10
2023-04-24T16:30:03.675Z,1.30
2023-04-24T16:32:32.877Z,0.88
2023-04-24T16:35:01.482Z,1.20
2023-04-24T16:37:31.459Z,0.93
2023-04-24T16:40:00.448Z,1.50
2023-04-24T16:42:29.303Z,1.30
2023-04-24T16:44:59.257Z,1.02
2023-04-24T16:47:28.181Z,1.15
2023-04-24T16:49:56.959Z,1.27
2023-04-24T16:52:25.630Z,1.23
2023-04-24T16:54:53.865Z,1.30
2023-04-24T16:57:23.032Z,1.80
2023-04-24T16:59:51.491Z,1.98
2023-04-24T17:02:21.408Z,1.42
2023-04-24T17:04:49.815Z,1.45
2023-04-24T17:07:18.763Z,1.98
2023-04-24T17:09:47.510Z,1.50
2023-04-24T17:12:16.292Z,1.80
2023-04-24T17:14:44.880Z,1.30
2023-04-24T17:17:14.973Z,1.65
2023-04-24T17:19:44.788Z,1.30
2023-04-24T17:22:13.366Z,1.80
2023-04-24T17:24:41.629Z,1.30
2023-04-24T17:27:15.341Z,1.27
2023-04-24T17:29:44.240Z,1.50
2023-04-24T17:32:15.906Z,1.20
2023-04-24T17:34:45.572Z,1.17
2023-04-24T17:37:14.357Z,1.35
2023-04-24T17:39:42.806Z,1.17
2023-04-24T17:42:11.373Z,1.27
2023-04-24T17:44:39.708Z,1.55
2023-04-24T17:47:08.677Z,1.45
2023-04-24T17:49:38.701Z,1.33
2023-04-24T17:52:09.048Z,1.70
2023-04-24T17:54:37.426Z,1.52
2023-04-24T17:57:06.091Z,1.90
2023-04-24T17:59:34.725Z,1.52
2023-04-24T18:02:03.590Z,1.70
2023-04-24T18:04:32.120Z,1.92
2023-04-24T18:07:01.054Z,1.98
2023-04-24T18:09:30.782Z,1.77
2023-04-24T18:11:59.461Z,1.85
2023-04-24T18:14:28.588Z,1.88
2023-04-24T18:16:59.987Z,2.10
2023-04-24T18:19:28.381Z,2.10
2023-04-24T18:21:58.060Z,2.00
2023-04-24T18:24:26.339Z,2.17
2023-04-24T18:26:57.603Z,1.88
2023-04-24T18:29:25.934Z,2.38
2023-04-24T18:31:54.686Z,1.98
2023-04-24T18:34:23.140Z,2.22
2023-04-24T18:36:52.205Z,2.25
2023-04-24T18:39:22.858Z,2.55
2023-04-24T18:41:51.578Z,2.65
2023-04-24T18:44:21.303Z,2.65
2023-04-24T18:46:50.211Z,2.63
2023-04-24T18:49:18.449Z,2.55
2023-04-24T18:51:52.974Z,2.88
2023-04-24T18:54:22.768Z,2.65
2023-04-24T18:56:51.565Z,2.72
2023-04-24T18:59:21.280Z,3.15
2023-04-24T19:01:50.025Z,2.65
2023-04-24T19:04:20.913Z,2.72
2023-04-24T19:06:50.098Z,3.00
2023-04-24T19:09:18.462Z,3.35
2023-04-24T19:11:47.577Z,3.03
2023-04-24T19:14:16.241Z,2.92
2023-04-24T19:16:46.350Z,3.55
2023-04-24T19:19:14.862Z,3.10
2023-04-24T19:21:43.844Z,2.83
2023-04-24T19:24:12.082Z,3.15
2023-04-24T19:26:40.615Z,2.60
2023-04-24T19:29:08.794Z,3.10
2023-04-24T19:31:37.297Z,3.03
2023-04-24T19:34:06.987Z,3.50
2023-04-24T19:36:36.500Z,3.03
2023-04-24T19:39:05.153Z,2.80
2023-04-24T19:41:33.851Z,3.20
2023-04-24T19:44:02.488Z,3.38
2023-04-24T19:46:31.669Z,3.10
2023-04-24T19:49:00.050Z,3.80
2023-04-24T19:51:30.025Z,3.42
2023-04-24T19:53:58.737Z,3.28
2023-04-24T19:56:27.281Z,3.50
2023-04-24T19:58:55.507Z,3.92
2023-04-24T20:01:24.106Z,3.60
2023-04-24T20:03:52.615Z,3.55
2023-04-24T20:06:21.304Z,3.78
2023-04-24T20:08:51.130Z,3.42
2023-04-24T20:11:20.045Z,3.97
2023-04-24T20:13:48.571Z,3.20
2023-04-24T20:16:17.956Z,3.65
2023-04-24T20:18:46.478Z,3.95
2023-04-24T20:21:15.232Z,3.80
2023-04-24T20:23:43.487Z,3.88
2023-04-24T20:26:13.468Z,3.08
2023-04-24T20:28:41.881Z,3.70
2023-04-24T20:31:10.500Z,3.63
2023-04-24T20:33:41.609Z,4.65
2023-04-24T20:36:10.612Z,4.55
2023-04-24T20:38:38.887Z,4.45
2023-04-24T20:41:08.983Z,5.07
2023-04-24T20:43:39.040Z,4.68
2023-04-24T20:46:07.655Z,5.13
2023-04-24T20:48:36.209Z,4.95
2023-04-24T20:51:04.922Z,4.68
2023-04-24T20:53:33.549Z,4.72
2023-04-24T20:56:02.092Z,3.90
2023-04-24T20:58:30.634Z,4.22
2023-04-24T21:01:00.967Z,4.13
2023-04-24T21:03:29.480Z,3.85
2023-04-24T21:05:58.284Z,3.83
2023-04-24T21:08:26.505Z,4.05
2023-04-24T21:10:55.038Z,3.85
2023-04-24T21:13:23.243Z,3.97
2023-04-24T21:15:52.104Z,3.40
2023-04-24T21:18:21.955Z,3.45
2023-04-24T21:20:51.769Z,3.92
2023-04-24T21:23:20.025Z,3.45
2023-04-24T21:25:49.189Z,3.67
2023-04-24T21:28:17.673Z,3.10
2023-04-24T21:30:46.361Z,3.40
2023-04-24T21:33:14.794Z,3.45
2023-04-24T21:35:45.049Z,3.80
2023-04-24T21:38:13.312Z,3.10
2023-04-24T21:40:41.979Z,3.30
2023-04-24T21:43:12.208Z,3.55
2023-04-24T21:45:40.936Z,2.83
2023-04-24T21:48:09.232Z,3.15
2023-04-24T21:50:37.843Z,2.75
2023-04-24T21:53:07.425Z,2.90
2023-04-24T21:55:36.093Z,2.80
2023-04-24T21:58:04.555Z,3.10
2023-04-24T22:00:35.489Z,2.67
2023-04-24T22:03:05.074Z,2.95
2023-04-24T22:05:33.912Z,2.75
2023-04-24T22:08:02.254Z,2.35
2023-04-24T22:10:32.321Z,2.30
2023-04-24T22:13:00.671Z,2.33
2023-04-24T22:15:29.308Z,1.98
2023-04-24T22:17:57.765Z,2.05
2023-04-24T22:20:26.628Z,2.05
2023-04-24T22:22:54.788Z,2.30
2023-04-24T22:25:23.212Z,2.50
2023-04-24T22:27:52.930Z,2.15
2023-04-24T22:30:21.629Z,1.90
2023-04-24T22:32:49.957Z,1.83
2023-04-24T22:35:19.799Z,2.17
2023-04-24T22:37:50.531Z,2.17
2023-04-24T22:40:19.113Z,2.00
2023-04-24T22:42:47.362Z,2.00
2023-04-24T22:45:17.435Z,1.73
2023-04-24T22:47:46.022Z,2.35
2023-04-24T22:50:15.252Z,2.15
2023-04-24T22:52:44.015Z,1.83
2023-04-24T22:55:12.549Z,2.08
2023-04-24T22:57:41.227Z,2.22
2023-04-24T23:00:12.657Z,1.95
2023-04-24T23:02:43.825Z,1.90
2023-04-24T23:05:12.617Z,1.60
2023-04-24T23:07:40.876Z,1.80
2023-04-24T23:10:10.089Z,1.92
2023-04-24T23:12:38.850Z,1.80
2023-04-24T23:15:08.582Z,1.58
2023-04-24T23:17:37.190Z,1.95
2023-04-24T23:20:09.130Z,1.63
2023-04-24T23:22:37.587Z,1.80
2023-04-24T23:25:08.413Z,2.20
2023-04-24T23:27:36.746Z,1.63
2023-04-24T23:30:06.711Z,1.73
2023-04-24T23:32:35.178Z,1.70
2023-04-24T23:35:03.904Z,1.38
2023-04-24T23:37:33.547Z,2.08
2023-04-24T23:40:02.475Z,1.52
2023-04-24T23:42:30.806Z,1.63
2023-04-24T23:44:59.400Z,1.80
2023-04-24T23:47:27.819Z,1.42
2023-04-24T23:49:56.472Z,1.58
2023-04-24T23:52:24.762Z,1.20
2023-04-24T23:54:54.544Z,1.35
2023-04-24T23:57:22.750Z,1.95
2023-04-24T23:59:51.475Z,1.67
